Terminal Aerodrome Forecast
Issued by NWS Northern Indiana

Home | Current Version | Previous Version | Graphics & Text | Print | Product List | Glossary On
Versions: 1 2 3 4 5 6 7 8 9 10 11 12 13
000
FTUS43 KIWX 271100
TAFFWA
TAF
KFWA 271120Z 2712/2812 03004KT 4SM BR BKN006
      TEMPO 2712/2714 3SM BR SCT006
     FM271400 35006KT P6SM SCT030 BKN080
     FM280000 03004KT P6SM SCT100
      TEMPO 2809/2812 3SM BR=

USA.gov is the U.S. government's official web portal to all federal, state and local government web resources and services.